Time;durP1;ratioP1;P1;durP2;ratioP2;P2;SDS_P1;SDS_P2;PMS_P1;PMS_P2;Temp;Humidity;BMP_temperature;BMP_pressure;BME280_temperature;BME280_humidity;BME280_pressure;Samples;Min_cycle;Max_cycle;Signal;HPM_P1;HPM_P2
2023/05/27 00:01:57;;;;;;;;;;;;;;;;;;5025117;28;19924;-80
2023/05/27 00:04:29;;;;;;;;;;;;;;;;;;5055008;28;19921;-80
2023/05/27 00:06:57;;;;;;;;;;;;;;;;;;5020231;28;19929;-80
2023/05/27 00:09:29;;;;;;;;;;;;;;;;;;5051019;28;19928;-80
2023/05/27 00:11:57;;;;;;;;;;;;;;;;;;5019881;28;20388;-81
2023/05/27 00:14:24;;;;;;;;;;;;;;;;;;5020146;28;19921;-80
2023/05/27 00:16:57;;;;;;;;;;;;;;;;;;5022672;28;19930;-79
2023/05/27 00:19:24;;;;;;;;;;;;;;;;;;5028321;28;19921;-80
2023/05/27 00:21:52;;;;;;;;;;;;;;;;;;5019946;28;19932;-80
2023/05/27 00:24:20;;;;;;;;;;;;;;;;;;5018199;28;19921;-80
2023/05/27 00:26:47;;;;;;;;;;;;;;;;;;5053502;28;19929;-80
2023/05/27 00:29:20;;;;;;;;;;;;;;;;;;5033268;28;19921;-80
2023/05/27 00:31:47;;;;;;;;;;;;;;;;;;5055084;28;19929;-79
2023/05/27 00:34:15;;;;;;;;;;;;;;;;;;5021530;28;19921;-79
2023/05/27 00:36:48;;;;;;;;;;;;;;;;;;5021319;28;19929;-79
2023/05/27 00:39:20;;;;;;;;;;;;;;;;;;5024538;28;20374;-80
2023/05/27 00:41:48;;;;;;;;;;;;;;;;;;5036145;28;19936;-80
2023/05/27 00:44:15;;;;;;;;;;;;;;;;;;5052543;28;19928;-79
2023/05/27 00:46:43;;;;;;;;;;;;;;;;;;5052174;28;19925;-80
2023/05/27 00:49:10;;;;;;;;;;;;;;;;;;5052732;28;19921;-80
2023/05/27 00:51:38;;;;;;;;;;;;;;;;;;5038484;28;19956;-79
2023/05/27 00:54:05;;;;;;;;;;;;;;;;;;5035372;28;19921;-80
2023/05/27 00:56:33;;;;;;;;;;;;;;;;;;5050070;28;20326;-79
2023/05/27 00:59:00;;;;;;;;;;;;;;;;;;5051563;28;19925;-79
2023/05/27 01:01:28;;;;;;;;;;;;;;;;;;5051539;28;19925;-80
2023/05/27 01:04:01;;;;;;;;;;;;;;;;;;5017754;28;20543;-80
2023/05/27 01:06:36;;;;;;;;;;;;;;;;;;5025793;28;20311;-80
2023/05/27 01:09:04;;;;;;;;;;;;;;;;;;5049884;28;19928;-81
2023/05/27 01:11:31;;;;;;;;;;;;;;;;;;5050729;28;19925;-81
2023/05/27 01:14:04;;;;;;;;;;;;;;;;;;5023026;28;19921;-80
2023/05/27 01:16:31;;;;;;;;;;;;;;;;;;5021426;28;19921;-79
2023/05/27 01:19:02;;;;;;;;;;;;;;;;;;5018054;28;19940;-81
2023/05/27 01:21:30;;;;;;;;;;;;;;;;;;5017139;28;19928;-80
2023/05/27 01:23:58;;;;;;;;;;;;;;;;;;5030248;28;19944;-80
2023/05/27 01:26:30;;;;;;;;;;;;;;;;;;5014423;28;19922;-80
2023/05/27 01:29:03;;;;;;;;;;;;;;;;;;5049225;28;19921;-80
2023/05/27 01:31:30;;;;;;;;;;;;;;;;;;5052072;28;19929;-79
2023/05/27 01:33:58;;;;;;;;;;;;;;;;;;5052469;28;19929;-81
2023/05/27 01:36:25;;;;;;;;;;;;;;;;;;5051559;28;19925;-80
2023/05/27 01:38:53;;;;;;;;;;;;;;;;;;5021941;28;19932;-81
2023/05/27 01:41:21;;;;;;;;;;;;;;;;;;5052119;28;19929;-80
2023/05/27 01:43:48;;;;;;;;;;;;;;;;;;5019514;28;19928;-79
2023/05/27 01:46:16;;;;;;;;;;;;;;;;;;5050774;28;19925;-79
2023/05/27 01:48:44;;;;;;;;;;;;;;;;;;5021915;28;20431;-81
2023/05/27 01:51:12;;;;;;;;;;;;;;;;;;5050604;28;19930;-80
2023/05/27 01:53:40;;;;;;;;;;;;;;;;;;5050807;28;20301;-80
2023/05/27 01:56:07;;;;;;;;;;;;;;;;;;5051805;28;19925;-80
2023/05/27 01:58:35;;;;;;;;;;;;;;;;;;5025683;28;20369;-80
2023/05/27 02:01:02;;;;;;;;;;;;;;;;;;5052671;28;19921;-80
2023/05/27 02:03:35;;;;;;;;;;;;;;;;;;5031393;28;19921;-80
2023/05/27 02:06:08;;;;;;;;;;;;;;;;;;5024599;28;19929;-80
2023/05/27 02:08:35;;;;;;;;;;;;;;;;;;5051336;28;19921;-80
2023/05/27 02:11:08;;;;;;;;;;;;;;;;;;5034804;28;19940;-81
2023/05/27 02:13:37;;;;;;;;;;;;;;;;;;5048219;28;20297;-80
2023/05/27 02:16:05;;;;;;;;;;;;;;;;;;5022749;28;19921;-81
2023/05/27 02:18:33;;;;;;;;;;;;;;;;;;5046526;28;19996;-81
2023/05/27 02:21:06;;;;;;;;;;;;;;;;;;5033575;28;19921;-81
2023/05/27 02:23:33;;;;;;;;;;;;;;;;;;5052915;28;20382;-80
2023/05/27 02:26:01;;;;;;;;;;;;;;;;;;5052879;28;19921;-80
2023/05/27 02:28:29;;;;;;;;;;;;;;;;;;5033597;28;19925;-81
2023/05/27 02:31:01;;;;;;;;;;;;;;;;;;5023279;28;19932;-80
2023/05/27 02:33:34;;;;;;;;;;;;;;;;;;5025032;28;19925;-80
2023/05/27 02:36:02;;;;;;;;;;;;;;;;;;5050048;28;20086;-80
2023/05/27 02:38:29;;;;;;;;;;;;;;;;;;5050897;28;20361;-80
2023/05/27 02:41:03;;;;;;;;;;;;;;;;;;5016255;28;19932;-80
2023/05/27 02:43:30;;;;;;;;;;;;;;;;;;5023762;28;19921;-80
2023/05/27 02:45:58;;;;;;;;;;;;;;;;;;5051068;28;19925;-80
2023/05/27 02:48:26;;;;;;;;;;;;;;;;;;5052022;28;20321;-80
2023/05/27 02:50:54;;;;;;;;;;;;;;;;;;5036484;28;19936;-79
2023/05/27 02:53:21;;;;;;;;;;;;;;;;;;5037155;28;19920;-80
2023/05/27 02:55:54;;;;;;;;;;;;;;;;;;5037446;28;19922;-80
2023/05/27 02:58:21;;;;;;;;;;;;;;;;;;5056360;28;19928;-80
2023/05/27 03:00:54;;;;;;;;;;;;;;;;;;5037593;28;19921;-80
2023/05/27 03:03:23;;;;;;;;;;;;;;;;;;5054620;28;19925;-80
2023/05/27 03:05:56;;;;;;;;;;;;;;;;;;5020601;28;19921;-80
2023/05/27 03:08:23;;;;;;;;;;;;;;;;;;5055602;28;19932;-81
2023/05/27 03:10:51;;;;;;;;;;;;;;;;;;5053863;28;19925;-80
2023/05/27 03:13:24;;;;;;;;;;;;;;;;;;5036142;28;19921;-80
2023/05/27 03:15:54;;;;;;;;;;;;;;;;;;5053644;28;19929;-81
2023/05/27 03:18:27;;;;;;;;;;;;;;;;;;5029582;28;19929;-80
2023/05/27 03:20:54;;;;;;;;;;;;;;;;;;5051499;28;19925;-80
2023/05/27 03:23:27;;;;;;;;;;;;;;;;;;5051876;28;19932;-80
2023/05/27 03:26:01;;;;;;;;;;;;;;;;;;5035284;28;19936;-82
2023/05/27 03:28:33;;;;;;;;;;;;;;;;;;5050273;28;19932;-80
2023/05/27 03:31:03;;;;;;;;;;;;;;;;;;5052854;28;19924;-80
2023/05/27 03:33:43;;;;;;;;;;;;;;;;;;5028101;28;19925;-80
2023/05/27 03:36:11;;;;;;;;;;;;;;;;;;5018908;28;20285;-80
2023/05/27 03:38:38;;;;;;;;;;;;;;;;;;5020964;28;19921;-81
2023/05/27 03:41:06;;;;;;;;;;;;;;;;;;5054045;28;19928;-80
2023/05/27 03:43:39;;;;;;;;;;;;;;;;;;5027288;28;19948;-80
2023/05/27 03:46:07;;;;;;;;;;;;;;;;;;5053432;28;19921;-80
2023/05/27 03:48:34;;;;;;;;;;;;;;;;;;5033489;28;19945;-80
2023/05/27 03:51:02;;;;;;;;;;;;;;;;;;5027294;28;19951;-80
2023/05/27 03:53:31;;;;;;;;;;;;;;;;;;5053275;28;19936;-80
2023/05/27 03:56:03;;;;;;;;;;;;;;;;;;5036765;28;19924;-80
2023/05/27 03:58:31;;;;;;;;;;;;;;;;;;5025364;28;19944;-80
2023/05/27 04:00:59;;;;;;;;;;;;;;;;;;5049903;28;19940;-79
2023/05/27 04:03:26;;;;;;;;;;;;;;;;;;5052751;28;20294;-80
2023/05/27 04:05:56;;;;;;;;;;;;;;;;;;5051796;28;20416;-80
2023/05/27 04:08:28;;;;;;;;;;;;;;;;;;5024817;28;19921;-80
2023/05/27 04:10:56;;;;;;;;;;;;;;;;;;5049903;28;19925;-80
2023/05/27 04:13:28;;;;;;;;;;;;;;;;;;5019388;28;19921;-80
2023/05/27 04:15:56;;;;;;;;;;;;;;;;;;5052227;28;20662;-80
2023/05/27 04:18:29;;;;;;;;;;;;;;;;;;5033357;28;19932;-80
2023/05/27 04:21:01;;;;;;;;;;;;;;;;;;5054897;28;19925;-79
2023/05/27 04:23:29;;;;;;;;;;;;;;;;;;5053627;28;19921;-80
2023/05/27 04:25:57;;;;;;;;;;;;;;;;;;5024072;28;19921;-80
2023/05/27 04:28:30;;;;;;;;;;;;;;;;;;5052759;28;20361;-80
2023/05/27 04:30:58;;;;;;;;;;;;;;;;;;5024978;28;21645;-80
2023/05/27 04:33:39;;;;;;;;;;;;;;;;;;5053452;28;20406;-80
2023/05/27 04:36:07;;;;;;;;;;;;;;;;;;5051894;28;19928;-80
2023/05/27 04:38:45;;;;;;;;;;;;;;;;;;5052441;28;19928;-80
2023/05/27 04:41:13;;;;;;;;;;;;;;;;;;5036609;28;19932;-80
2023/05/27 04:44:05;;;;;;;;;;;;;;;;;;5023500;28;19932;-80
2023/05/27 04:46:38;;;;;;;;;;;;;;;;;;5050703;28;19945;-80
2023/05/27 04:49:06;;;;;;;;;;;;;;;;;;5050424;28;19921;-80
2023/05/27 04:51:35;;;;;;;;;;;;;;;;;;5056209;28;19921;-80
2023/05/27 04:54:08;;;;;;;;;;;;;;;;;;5037077;28;19928;-81
2023/05/27 04:56:36;;;;;;;;;;;;;;;;;;5047420;28;19932;-79
2023/05/27 04:59:05;;;;;;;;;;;;;;;;;;5049646;28;19925;-80
2023/05/27 05:01:48;;;;;;;;;;;;;;;;;;5015581;28;19932;-80
2023/05/27 05:04:23;;;;;;;;;;;;;;;;;;5049400;28;19925;-80
2023/05/27 05:06:55;;;;;;;;;;;;;;;;;;5032681;28;19925;-80
2023/05/27 05:09:24;;;;;;;;;;;;;;;;;;5049397;28;19933;-81
2023/05/27 05:12:04;;;;;;;;;;;;;;;;;;5050243;28;19928;-79
2023/05/27 05:14:35;;;;;;;;;;;;;;;;;;5052299;28;20540;-80
2023/05/27 05:17:03;;;;;;;;;;;;;;;;;;5023967;28;19925;-80
2023/05/27 05:19:31;;;;;;;;;;;;;;;;;;5047548;28;19929;-80
2023/05/27 05:21:58;;;;;;;;;;;;;;;;;;5051932;28;20266;-80
2023/05/27 05:24:27;;;;;;;;;;;;;;;;;;5053297;28;19928;-79
2023/05/27 05:27:00;;;;;;;;;;;;;;;;;;5051067;28;19929;-79
2023/05/27 05:29:27;;;;;;;;;;;;;;;;;;5034819;28;19925;-79
2023/05/27 05:32:00;;;;;;;;;;;;;;;;;;5035952;28;19936;-79
2023/05/27 05:34:28;;;;;;;;;;;;;;;;;;5024547;28;20299;-79
2023/05/27 05:36:55;;;;;;;;;;;;;;;;;;5035241;28;19928;-79
2023/05/27 05:39:28;;;;;;;;;;;;;;;;;;5024930;28;19925;-80
2023/05/27 05:42:01;;;;;;;;;;;;;;;;;;5023234;28;19936;-79
2023/05/27 05:44:28;;;;;;;;;;;;;;;;;;5037472;28;19925;-80
2023/05/27 05:46:56;;;;;;;;;;;;;;;;;;5017441;28;19928;-80
2023/05/27 05:49:25;;;;;;;;;;;;;;;;;;5051082;28;19925;-80
2023/05/27 05:51:53;;;;;;;;;;;;;;;;;;5050050;28;19928;-79
2023/05/27 05:54:20;;;;;;;;;;;;;;;;;;5025032;28;19925;-80
2023/05/27 05:56:56;;;;;;;;;;;;;;;;;;5048378;28;19936;-79
2023/05/27 05:59:28;;;;;;;;;;;;;;;;;;5026163;28;20255;-79
2023/05/27 06:01:56;;;;;;;;;;;;;;;;;;5033478;28;19929;-79
2023/05/27 06:04:26;;;;;;;;;;;;;;;;;;5038074;28;19928;-79
2023/05/27 06:06:54;;;;;;;;;;;;;;;;;;5050928;28;19933;-79
2023/05/27 06:09:32;;;;;;;;;;;;;;;;;;5025718;28;19928;-79
2023/05/27 06:12:09;;;;;;;;;;;;;;;;;;5049769;28;20405;-79
2023/05/27 06:14:46;;;;;;;;;;;;;;;;;;5047866;28;19925;-79
2023/05/27 06:17:28;;;;;;;;;;;;;;;;;;5051862;28;19925;-79
2023/05/27 06:19:56;;;;;;;;;;;;;;;;;;5051322;28;20270;-79
2023/05/27 06:22:23;;;;;;;;;;;;;;;;;;5020119;28;19929;-80
2023/05/27 06:25:10;;;;;;;;;;;;;;;;;;5020471;28;20698;-79
2023/05/27 06:27:47;;;;;;;;;;;;;;;;;;5051615;28;19925;-79
2023/05/27 06:30:14;;;;;;;;;;;;;;;;;;5053179;28;19925;-79
2023/05/27 06:32:48;;;;;;;;;;;;;;;;;;5053418;28;20507;-79
2023/05/27 06:35:16;;;;;;;;;;;;;;;;;;5028097;28;19921;-79
2023/05/27 06:37:49;;;;;;;;;;;;;;;;;;5034189;28;19943;-80
2023/05/27 06:40:17;;;;;;;;;;;;;;;;;;5052386;28;19921;-80
2023/05/27 06:42:45;;;;;;;;;;;;;;;;;;5028735;28;19944;-80
2023/05/27 06:45:30;;;;;;;;;;;;;;;;;;5027978;28;19921;-80
2023/05/27 06:48:23;;;;;;;;;;;;;;;;;;5056063;28;19928;-80
2023/05/27 06:50:56;;;;;;;;;;;;;;;;;;5040441;28;20309;-81
2023/05/27 06:53:28;;;;;;;;;;;;;;;;;;5038472;28;19929;-80
2023/05/27 06:56:07;;;;;;;;;;;;;;;;;;5042076;28;20382;-80
2023/05/27 06:59:14;;;;;;;;;;;;;;;;;;5027821;28;19928;-80
2023/05/27 07:01:42;;;;;;;;;;;;;;;;;;5030542;28;20393;-80
2023/05/27 07:04:12;;;;;;;;;;;;;;;;;;5031016;28;20305;-80
2023/05/27 07:07:06;;;;;;;;;;;;;;;;;;5023932;28;19925;-80
2023/05/27 07:09:34;;;;;;;;;;;;;;;;;;5055169;28;19925;-79
2023/05/27 07:12:01;;;;;;;;;;;;;;;;;;5025541;28;19928;-81
2023/05/27 07:14:56;;;;;;;;;;;;;;;;;;5026361;28;19932;-80
2023/05/27 07:17:26;;;;;;;;;;;;;;;;;;5057647;28;20285;-80
2023/05/27 07:19:55;;;;;;;;;;;;;;;;;;5025052;28;19925;-80
2023/05/27 07:22:23;;;;;;;;;;;;;;;;;;5025908;28;19937;-81
2023/05/27 07:24:51;;;;;;;;;;;;;;;;;;5055017;28;19922;-79
2023/05/27 07:30:42;;;;;;;;;;;;;;;;;;5056018;28;19920;-80
2023/05/27 07:33:09;;;;;;;;;;;;;;;;;;5054090;28;19928;-79
2023/05/27 07:35:42;;;;;;;;;;;;;;;;;;5056176;28;19944;-80
2023/05/27 07:38:10;;;;;;;;;;;;;;;;;;5020840;28;19929;-80
2023/05/27 07:40:42;;;;;;;;;;;;;;;;;;5052796;28;19931;-79
2023/05/27 07:43:10;;;;;;;;;;;;;;;;;;5034733;28;20262;-81
2023/05/27 07:45:38;;;;;;;;;;;;;;;;;;5035773;28;20549;-82
2023/05/27 07:48:05;;;;;;;;;;;;;;;;;;5054040;28;19929;-80
2023/05/27 07:50:33;;;;;;;;;;;;;;;;;;5021840;28;20301;-80
2023/05/27 07:53:09;;;;;;;;;;;;;;;;;;5052307;28;19929;-79
2023/05/27 07:55:38;;;;;;;;;;;;;;;;;;5053368;28;19925;-80
2023/05/27 07:58:06;;;;;;;;;;;;;;;;;;5051163;28;19936;-80
2023/05/27 08:01:11;;;;;;;;;;;;;;;;;;5013022;28;19952;-81
2023/05/27 08:03:44;;;;;;;;;;;;;;;;;;5049875;28;19925;-82
2023/05/27 08:06:38;;;;;;;;;;;;;;;;;;5011454;28;19943;-81
2023/05/27 08:09:32;;;;;;;;;;;;;;;;;;5027961;28;19932;-80
2023/05/27 08:12:00;;;;;;;;;;;;;;;;;;5017479;28;19947;-82
2023/05/27 08:15:08;;;;;;;;;;;;;;;;;;4967553;28;20516;-83
2023/05/27 08:17:43;;;;;;;;;;;;;;;;;;5014682;28;19944;-81
2023/05/27 08:20:27;;;;;;;;;;;;;;;;;;5019597;28;19941;-82
2023/05/27 08:23:12;;;;;;;;;;;;;;;;;;5050996;28;19925;-81
2023/05/27 08:25:50;;;;;;;;;;;;;;;;;;5048740;28;19929;-82
2023/05/27 08:28:50;;;;;;;;;;;;;;;;;;5017555;28;20354;-80
2023/05/27 08:31:46;;;;;;;;;;;;;;;;;;5026635;28;19921;-82
2023/05/27 08:34:13;;;;;;;;;;;;;;;;;;5052224;28;20408;-82
2023/05/27 08:36:41;;;;;;;;;;;;;;;;;;5049521;28;20685;-81
2023/05/27 08:39:13;;;;;;;;;;;;;;;;;;5056568;28;19932;-82
2023/05/27 08:41:51;;;;;;;;;;;;;;;;;;5028386;28;20441;-83
2023/05/27 08:44:19;;;;;;;;;;;;;;;;;;5054797;28;19933;-81
2023/05/27 08:46:58;;;;;;;;;;;;;;;;;;5021951;28;19922;-83
2023/05/27 08:49:26;;;;;;;;;;;;;;;;;;5054377;28;20040;-82
2023/05/27 08:51:53;;;;;;;;;;;;;;;;;;5055826;28;19927;-83
2023/05/27 08:54:26;;;;;;;;;;;;;;;;;;5028435;28;19928;-81
2023/05/27 08:56:56;;;;;;;;;;;;;;;;;;5054857;28;19928;-81
2023/05/27 08:59:23;;;;;;;;;;;;;;;;;;5051322;28;19925;-81
2023/05/27 09:01:51;;;;;;;;;;;;;;;;;;5053468;28;19932;-82
2023/05/27 09:04:19;;;;;;;;;;;;;;;;;;5030099;28;19925;-84
2023/05/27 09:06:47;;;;;;;;;;;;;;;;;;5052643;28;19932;-83
2023/05/27 09:09:17;;;;;;;;;;;;;;;;;;5055988;28;19932;-82
2023/05/27 09:11:44;;;;;;;;;;;;;;;;;;5053928;28;19947;-83
2023/05/27 09:14:12;;;;;;;;;;;;;;;;;;5049730;28;20442;-84
2023/05/27 09:16:40;;;;;;;;;;;;;;;;;;5046636;28;19925;-82
2023/05/27 09:19:12;;;;;;;;;;;;;;;;;;5010773;28;19936;-82
2023/05/27 09:21:45;;;;;;;;;;;;;;;;;;4992833;28;20456;-82
2023/05/27 09:24:12;;;;;;;;;;;;;;;;;;5042585;28;19921;-83
2023/05/27 09:26:40;;;;;;;;;;;;;;;;;;5020531;28;19944;-81
2023/05/27 09:29:07;;;;;;;;;;;;;;;;;;5024112;28;19925;-82
2023/05/27 09:31:35;;;;;;;;;;;;;;;;;;5039811;28;20381;-82
2023/05/27 09:34:07;;;;;;;;;;;;;;;;;;5028443;28;19932;-82
2023/05/27 09:36:35;;;;;;;;;;;;;;;;;;5021070;28;19936;-82
2023/05/27 09:39:02;;;;;;;;;;;;;;;;;;5028897;28;20576;-82
2023/05/27 09:41:30;;;;;;;;;;;;;;;;;;5054573;28;19928;-84
2023/05/27 09:44:00;;;;;;;;;;;;;;;;;;5053401;28;19928;-83
2023/05/27 09:46:27;;;;;;;;;;;;;;;;;;5023290;28;19928;-83
2023/05/27 09:48:55;;;;;;;;;;;;;;;;;;5050221;28;19929;-83
2023/05/27 09:51:23;;;;;;;;;;;;;;;;;;5056293;28;19928;-84
2023/05/27 09:53:50;;;;;;;;;;;;;;;;;;5027804;28;20415;-82
2023/05/27 09:56:23;;;;;;;;;;;;;;;;;;5035594;28;19928;-83
2023/05/27 09:58:50;;;;;;;;;;;;;;;;;;5052971;28;20582;-82
2023/05/27 10:01:18;;;;;;;;;;;;;;;;;;5051813;28;19921;-83
2023/05/27 10:03:46;;;;;;;;;;;;;;;;;;5054726;28;20381;-83
2023/05/27 10:06:13;;;;;;;;;;;;;;;;;;5026352;28;19921;-83
2023/05/27 10:08:41;;;;;;;;;;;;;;;;;;5024431;28;19929;-84
2023/05/27 10:11:13;;;;;;;;;;;;;;;;;;5028766;28;19928;-82
2023/05/27 10:13:41;;;;;;;;;;;;;;;;;;5022399;28;19932;-82
2023/05/27 10:16:13;;;;;;;;;;;;;;;;;;5051414;28;19921;-82
2023/05/27 10:18:41;;;;;;;;;;;;;;;;;;5022083;28;20515;-82
2023/05/27 10:21:09;;;;;;;;;;;;;;;;;;5025089;28;19921;-82
2023/05/27 10:23:44;;;;;;;;;;;;;;;;;;5026393;28;19921;-81
2023/05/27 10:26:12;;;;;;;;;;;;;;;;;;5027714;28;19933;-82
2023/05/27 10:28:40;;;;;;;;;;;;;;;;;;5029247;28;19921;-83
2023/05/27 10:31:08;;;;;;;;;;;;;;;;;;5032608;28;19928;-82
2023/05/27 10:33:41;;;;;;;;;;;;;;;;;;5026440;28;20393;-84
2023/05/27 10:36:08;;;;;;;;;;;;;;;;;;5053852;28;19927;-83
2023/05/27 10:38:36;;;;;;;;;;;;;;;;;;5038535;28;19925;-82
2023/05/27 10:41:08;;;;;;;;;;;;;;;;;;5053466;28;19921;-83
2023/05/27 10:43:36;;;;;;;;;;;;;;;;;;5051298;28;20382;-83
2023/05/27 10:46:04;;;;;;;;;;;;;;;;;;5054780;28;19921;-83
2023/05/27 10:48:31;;;;;;;;;;;;;;;;;;5022024;28;19925;-82
2023/05/27 10:50:59;;;;;;;;;;;;;;;;;;5021580;28;19921;-83
2023/05/27 10:53:26;;;;;;;;;;;;;;;;;;5055058;28;19925;-83
2023/05/27 10:55:54;;;;;;;;;;;;;;;;;;5023487;28;19929;-82
2023/05/27 10:58:22;;;;;;;;;;;;;;;;;;5024756;28;20374;-82
2023/05/27 11:00:54;;;;;;;;;;;;;;;;;;5050995;28;19928;-84
2023/05/27 11:03:22;;;;;;;;;;;;;;;;;;5035192;28;20498;-83
2023/05/27 11:05:50;;;;;;;;;;;;;;;;;;5020449;28;20388;-84
2023/05/27 11:08:17;;;;;;;;;;;;;;;;;;5023928;28;19925;-83
2023/05/27 11:10:45;;;;;;;;;;;;;;;;;;5022757;28;19928;-82
2023/05/27 11:13:17;;;;;;;;;;;;;;;;;;5025937;28;19925;-82
2023/05/27 11:15:45;;;;;;;;;;;;;;;;;;5054284;28;19929;-82
2023/05/27 11:18:12;;;;;;;;;;;;;;;;;;5028433;28;20373;-82
2023/05/27 11:20:45;;;;;;;;;;;;;;;;;;5056636;28;19928;-83
2023/05/27 11:23:15;;;;;;;;;;;;;;;;;;5055813;28;20274;-84
2023/05/27 11:25:47;;;;;;;;;;;;;;;;;;5041445;28;19932;-82
2023/05/27 11:28:20;;;;;;;;;;;;;;;;;;5056410;28;19921;-82
2023/05/27 11:30:47;;;;;;;;;;;;;;;;;;5026871;28;19931;-83
2023/05/27 11:33:16;;;;;;;;;;;;;;;;;;5054391;28;19921;-82
2023/05/27 11:35:43;;;;;;;;;;;;;;;;;;5053433;28;19928;-82
2023/05/27 11:38:11;;;;;;;;;;;;;;;;;;5025195;28;20658;-82
2023/05/27 11:40:38;;;;;;;;;;;;;;;;;;5056972;28;19921;-83
2023/05/27 11:43:06;;;;;;;;;;;;;;;;;;5053561;28;19929;-81
2023/05/27 11:45:33;;;;;;;;;;;;;;;;;;5029701;28;19928;-82
2023/05/27 11:48:01;;;;;;;;;;;;;;;;;;5020004;28;19925;-82
2023/05/27 11:50:33;;;;;;;;;;;;;;;;;;5023811;28;19932;-82
2023/05/27 11:53:01;;;;;;;;;;;;;;;;;;5031379;28;19928;-82
2023/05/27 11:55:29;;;;;;;;;;;;;;;;;;5029834;28;20273;-83
2023/05/27 11:57:56;;;;;;;;;;;;;;;;;;5024597;28;19956;-83
2023/05/27 12:00:24;;;;;;;;;;;;;;;;;;5054319;28;19921;-82
2023/05/27 12:02:51;;;;;;;;;;;;;;;;;;5031620;28;19932;-82
2023/05/27 12:05:24;;;;;;;;;;;;;;;;;;5031739;28;19925;-83
2023/05/27 12:07:51;;;;;;;;;;;;;;;;;;5027957;28;20464;-83
2023/05/27 12:10:24;;;;;;;;;;;;;;;;;;5041055;28;19932;-81
2023/05/27 12:12:57;;;;;;;;;;;;;;;;;;5019317;28;20378;-82
2023/05/27 12:15:26;;;;;;;;;;;;;;;;;;5023775;28;19921;-82
2023/05/27 12:17:53;;;;;;;;;;;;;;;;;;5053606;28;19924;-82
2023/05/27 12:20:27;;;;;;;;;;;;;;;;;;5038508;28;19928;-83
2023/05/27 12:22:55;;;;;;;;;;;;;;;;;;5052548;28;20285;-82
2023/05/27 12:25:22;;;;;;;;;;;;;;;;;;5054179;28;20410;-82
2023/05/27 12:27:55;;;;;;;;;;;;;;;;;;5054517;28;19940;-82
2023/05/27 12:30:22;;;;;;;;;;;;;;;;;;5052172;28;19925;-81
2023/05/27 12:32:50;;;;;;;;;;;;;;;;;;5054633;28;19944;-81
2023/05/27 12:35:17;;;;;;;;;;;;;;;;;;5053507;28;20286;-82
2023/05/27 12:37:45;;;;;;;;;;;;;;;;;;5029696;28;19921;-81
2023/05/27 12:40:20;;;;;;;;;;;;;;;;;;5054658;28;19933;-80
2023/05/27 12:42:47;;;;;;;;;;;;;;;;;;5053233;28;20429;-80
2023/05/27 12:45:15;;;;;;;;;;;;;;;;;;5024848;28;19929;-81
2023/05/27 12:47:50;;;;;;;;;;;;;;;;;;5054862;28;19925;-80
2023/05/27 12:50:28;;;;;;;;;;;;;;;;;;5021034;28;20576;-80
2023/05/27 12:52:55;;;;;;;;;;;;;;;;;;5005854;28;19929;-80
2023/05/27 12:55:24;;;;;;;;;;;;;;;;;;5033276;28;19936;-80
2023/05/27 12:57:51;;;;;;;;;;;;;;;;;;5007880;28;19921;-80
2023/05/27 13:00:24;;;;;;;;;;;;;;;;;;5005581;28;20329;-81
2023/05/27 13:02:51;;;;;;;;;;;;;;;;;;5052509;28;19929;-81
2023/05/27 13:05:19;;;;;;;;;;;;;;;;;;5001475;28;20546;-81
2023/05/27 13:07:46;;;;;;;;;;;;;;;;;;5048571;28;19921;-80
2023/05/27 13:10:22;;;;;;;;;;;;;;;;;;5009226;28;19940;-81
2023/05/27 13:12:50;;;;;;;;;;;;;;;;;;5042381;28;19935;-81
2023/05/27 13:15:17;;;;;;;;;;;;;;;;;;5019609;28;19929;-82
2023/05/27 13:17:45;;;;;;;;;;;;;;;;;;5008588;28;19943;-82
2023/05/27 13:20:13;;;;;;;;;;;;;;;;;;5012712;28;19928;-81
2023/05/27 13:22:41;;;;;;;;;;;;;;;;;;5014138;28;19929;-83
2023/05/27 13:25:13;;;;;;;;;;;;;;;;;;5034570;28;20623;-82
2023/05/27 13:27:41;;;;;;;;;;;;;;;;;;5033295;28;19925;-83
2023/05/27 13:30:09;;;;;;;;;;;;;;;;;;5042517;28;19929;-82
2023/05/27 13:32:36;;;;;;;;;;;;;;;;;;5052165;28;19921;-83
2023/05/27 13:35:04;;;;;;;;;;;;;;;;;;5015683;28;19925;-82
2023/05/27 13:37:36;;;;;;;;;;;;;;;;;;5003053;28;20784;-83
2023/05/27 13:40:04;;;;;;;;;;;;;;;;;;5042569;28;19929;-86
2023/05/27 13:42:32;;;;;;;;;;;;;;;;;;5004081;28;19928;-81
2023/05/27 13:45:00;;;;;;;;;;;;;;;;;;5019652;28;19928;-82
2023/05/27 13:47:27;;;;;;;;;;;;;;;;;;5007879;28;19935;-84
2023/05/27 13:50:00;;;;;;;;;;;;;;;;;;5010485;28;20309;-84
2023/05/27 13:52:27;;;;;;;;;;;;;;;;;;5006397;28;19929;-84
2023/05/27 13:55:02;;;;;;;;;;;;;;;;;;5010917;28;19921;-82
2023/05/27 13:57:34;;;;;;;;;;;;;;;;;;5039910;28;19921;-86
2023/05/27 14:00:02;;;;;;;;;;;;;;;;;;5004554;28;20587;-83
2023/05/27 14:02:31;;;;;;;;;;;;;;;;;;5011796;28;20412;-83
2023/05/27 14:04:58;;;;;;;;;;;;;;;;;;5009777;28;20610;-85
2023/05/27 14:07:26;;;;;;;;;;;;;;;;;;5006092;28;19929;-81
2023/05/27 14:09:58;;;;;;;;;;;;;;;;;;5040959;28;19929;-84
2023/05/27 14:12:26;;;;;;;;;;;;;;;;;;5011847;28;19932;-82
2023/05/27 14:14:53;;;;;;;;;;;;;;;;;;5008858;28;20588;-83
2023/05/27 14:17:26;;;;;;;;;;;;;;;;;;5009228;28;19921;-83
2023/05/27 14:19:54;;;;;;;;;;;;;;;;;;4998416;28;19929;-83
2023/05/27 14:22:22;;;;;;;;;;;;;;;;;;5007738;28;19929;-83
2023/05/27 14:24:49;;;;;;;;;;;;;;;;;;5042440;28;20586;-83
2023/05/27 14:27:17;;;;;;;;;;;;;;;;;;5014615;28;19936;-83
2023/05/27 14:29:49;;;;;;;;;;;;;;;;;;5045048;28;19932;-83
2023/05/27 14:32:17;;;;;;;;;;;;;;;;;;5016041;28;19928;-83
2023/05/27 14:34:45;;;;;;;;;;;;;;;;;;5001984;28;19924;-84
2023/05/27 14:37:15;;;;;;;;;;;;;;;;;;5008876;28;20634;-83
2023/05/27 14:39:46;;;;;;;;;;;;;;;;;;5008594;28;19947;-84
2023/05/27 14:42:14;;;;;;;;;;;;;;;;;;5038624;28;19944;-84
2023/05/27 14:45:22;;;;;;;;;;;;;;;;;;5005452;28;19936;-83
2023/05/27 14:47:50;;;;;;;;;;;;;;;;;;5008118;28;19925;-82
2023/05/27 14:50:18;;;;;;;;;;;;;;;;;;5013757;28;19929;-84
2023/05/27 14:52:45;;;;;;;;;;;;;;;;;;5041734;28;20319;-83
2023/05/27 14:55:15;;;;;;;;;;;;;;;;;;5010226;28;19958;-81
2023/05/27 14:57:42;;;;;;;;;;;;;;;;;;5019812;28;20388;-83
2023/05/27 15:00:15;;;;;;;;;;;;;;;;;;5015042;28;20404;-84
2023/05/27 15:02:48;;;;;;;;;;;;;;;;;;5004861;28;20393;-84
2023/05/27 15:05:16;;;;;;;;;;;;;;;;;;5042818;28;19935;-85
2023/05/27 15:07:44;;;;;;;;;;;;;;;;;;5016676;28;19921;-84
2023/05/27 15:10:11;;;;;;;;;;;;;;;;;;5015299;28;19928;-83
2023/05/27 15:12:39;;;;;;;;;;;;;;;;;;5009139;28;19929;-84
2023/05/27 15:15:07;;;;;;;;;;;;;;;;;;5010114;28;19929;-83
2023/05/27 15:17:35;;;;;;;;;;;;;;;;;;5061898;28;19929;-83
2023/05/27 15:20:03;;;;;;;;;;;;;;;;;;5025545;28;19925;-85
2023/05/27 15:22:31;;;;;;;;;;;;;;;;;;5044675;28;19928;-84
2023/05/27 15:24:58;;;;;;;;;;;;;;;;;;5040664;28;20381;-83
2023/05/27 15:27:26;;;;;;;;;;;;;;;;;;5027007;28;20322;-84
2023/05/27 15:29:53;;;;;;;;;;;;;;;;;;5044197;28;19925;-84
2023/05/27 15:32:26;;;;;;;;;;;;;;;;;;5033431;28;20301;-83
2023/05/27 15:34:54;;;;;;;;;;;;;;;;;;5055765;28;19932;-83
2023/05/27 15:37:21;;;;;;;;;;;;;;;;;;5063127;28;19921;-84
2023/05/27 15:39:56;;;;;;;;;;;;;;;;;;5025286;28;19966;-85
2023/05/27 15:42:25;;;;;;;;;;;;;;;;;;5059225;28;19925;-82
2023/05/27 15:44:57;;;;;;;;;;;;;;;;;;5027149;28;19921;-83
2023/05/27 15:47:25;;;;;;;;;;;;;;;;;;5059962;28;19928;-82
2023/05/27 15:49:54;;;;;;;;;;;;;;;;;;5025077;28;19940;-81
2023/05/27 15:52:21;;;;;;;;;;;;;;;;;;5056400;28;19921;-82
2023/05/27 15:54:49;;;;;;;;;;;;;;;;;;5031290;28;19921;-83
2023/05/27 15:57:16;;;;;;;;;;;;;;;;;;5021221;28;20295;-83
2023/05/27 15:59:44;;;;;;;;;;;;;;;;;;5025013;28;19932;-82
2023/05/27 16:02:11;;;;;;;;;;;;;;;;;;5028279;28;20298;-82
2023/05/27 16:04:39;;;;;;;;;;;;;;;;;;5026580;28;19921;-81
2023/05/27 16:07:11;;;;;;;;;;;;;;;;;;5022636;28;19921;-83
2023/05/27 16:09:39;;;;;;;;;;;;;;;;;;5041612;28;20726;-82
2023/05/27 16:12:07;;;;;;;;;;;;;;;;;;5024450;28;20298;-82
2023/05/27 16:14:39;;;;;;;;;;;;;;;;;;5029215;28;19921;-83
2023/05/27 16:17:07;;;;;;;;;;;;;;;;;;5044599;28;19925;-83
2023/05/27 16:19:34;;;;;;;;;;;;;;;;;;5026252;28;20308;-83
2023/05/27 16:22:03;;;;;;;;;;;;;;;;;;5022128;28;19929;-83
2023/05/27 16:24:30;;;;;;;;;;;;;;;;;;5059570;28;20424;-82
2023/05/27 16:26:58;;;;;;;;;;;;;;;;;;5024173;28;19926;-82
2023/05/27 16:29:26;;;;;;;;;;;;;;;;;;5038146;28;20293;-83
2023/05/27 16:31:53;;;;;;;;;;;;;;;;;;5021165;28;19928;-85
2023/05/27 16:34:21;;;;;;;;;;;;;;;;;;5026514;28;20400;-83
2023/05/27 16:36:48;;;;;;;;;;;;;;;;;;5024201;28;20614;-85
2023/05/27 16:39:16;;;;;;;;;;;;;;;;;;5027072;28;21229;-86
2023/05/27 16:41:43;;;;;;;;;;;;;;;;;;5009304;28;19935;-83
2023/05/27 16:44:16;;;;;;;;;;;;;;;;;;5002978;28;19960;-87
2023/05/27 16:46:44;;;;;;;;;;;;;;;;;;5003439;28;20510;-83
2023/05/27 16:49:11;;;;;;;;;;;;;;;;;;5005536;28;19936;-84
2023/05/27 16:51:44;;;;;;;;;;;;;;;;;;5008267;28;20393;-83
2023/05/27 16:54:16;;;;;;;;;;;;;;;;;;5010349;28;20029;-82
2023/05/27 16:56:44;;;;;;;;;;;;;;;;;;5036547;28;19932;-83
2023/05/27 16:59:16;;;;;;;;;;;;;;;;;;5015911;28;19928;-84
2023/05/27 17:01:44;;;;;;;;;;;;;;;;;;5007837;28;19932;-84
2023/05/27 17:04:11;;;;;;;;;;;;;;;;;;5011744;28;20297;-87
2023/05/27 17:06:44;;;;;;;;;;;;;;;;;;5006384;28;19924;-85
2023/05/27 17:09:12;;;;;;;;;;;;;;;;;;5036766;28;19929;-86
2023/05/27 17:11:45;;;;;;;;;;;;;;;;;;5005788;28;19929;-83